createdAt,value
2022-11-16T00:01:28.322Z,7.03
2022-11-16T00:03:58.174Z,7.68
2022-11-16T00:06:27.425Z,7.03
2022-11-16T00:08:58.577Z,7.60
2022-11-16T00:11:26.824Z,6.55
2022-11-16T00:13:55.321Z,6.32
2022-11-16T00:16:24.327Z,8.45
2022-11-16T00:18:57.844Z,7.63
2022-11-16T00:21:27.532Z,7.10
2022-11-16T00:23:55.901Z,8.18
2022-11-16T00:26:24.263Z,7.70
2022-11-16T00:28:58.874Z,6.82
2022-11-16T00:31:34.478Z,7.03
2022-11-16T00:34:03.466Z,7.75
2022-11-16T00:36:32.304Z,6.70
2022-11-16T00:39:00.404Z,6.75
2022-11-16T00:41:30.040Z,7.35
2022-11-16T00:43:58.327Z,8.05
2022-11-16T00:46:26.639Z,7.25
2022-11-16T00:48:55.069Z,7.25
2022-11-16T00:51:23.239Z,8.57
2022-11-16T00:53:51.791Z,8.75
2022-11-16T00:56:20.339Z,7.45
2022-11-16T00:58:48.581Z,8.95
2022-11-16T01:01:17.522Z,7.15
2022-11-16T01:03:46.110Z,8.15
2022-11-16T01:06:16.005Z,9.52
2022-11-16T01:08:45.348Z,8.57
2022-11-16T01:11:18.317Z,9.48
2022-11-16T01:13:46.924Z,7.90
2022-11-16T01:16:17.379Z,9.80
2022-11-16T01:18:49.178Z,9.57
2022-11-16T01:21:17.981Z,9.25
2022-11-16T01:23:46.276Z,8.50
2022-11-16T01:26:14.909Z,9.43
2022-11-16T01:28:43.661Z,7.70
2022-11-16T01:31:13.257Z,9.50
2022-11-16T01:33:42.736Z,8.95
2022-11-16T01:36:30.263Z,10.00
2022-11-16T01:39:01.010Z,10.45
2022-11-16T01:41:34.195Z,10.40
2022-11-16T01:44:34.370Z,9.63
2022-11-16T01:47:11.877Z,10.15
2022-11-16T01:52:17.698Z,8.77
2022-11-16T01:54:49.601Z,10.68
2022-11-16T01:57:26.572Z,8.85
2022-11-16T02:00:08.853Z,11.88
2022-11-16T02:02:51.702Z,9.13
2022-11-16T02:05:52.165Z,10.20
2022-11-16T02:08:21.220Z,10.57
2022-11-16T02:11:15.626Z,12.00
2022-11-16T02:13:59.023Z,11.85
2022-11-16T02:17:04.701Z,9.60
2022-11-16T02:20:15.028Z,8.73
2022-11-16T02:23:04.356Z,10.55
2022-11-16T02:25:54.899Z,9.93
2022-11-16T02:28:53.302Z,11.13
2022-11-16T02:31:28.012Z,10.32
2022-11-16T02:33:59.794Z,10.75
2022-11-16T02:36:28.136Z,11.13
2022-11-16T02:39:05.777Z,11.50
2022-11-16T02:41:41.341Z,10.88
2022-11-16T02:44:18.408Z,9.43
2022-11-16T02:46:50.113Z,9.18
2022-11-16T02:49:21.400Z,10.23
2022-11-16T02:51:51.366Z,9.55
2022-11-16T02:54:23.162Z,10.30
2022-11-16T02:57:05.896Z,8.45
2022-11-16T02:59:42.733Z,7.45
2022-11-16T03:02:42.584Z,9.10
2022-11-16T03:05:34.794Z,8.13
2022-11-16T03:08:29.147Z,8.10
2022-11-16T03:11:10.223Z,8.65
2022-11-16T03:13:39.649Z,11.10
2022-11-16T03:16:32.043Z,8.35
2022-11-16T03:19:02.653Z,8.95
2022-11-16T03:21:52.800Z,9.40
2022-11-16T03:24:21.962Z,9.73
2022-11-16T03:26:53.362Z,8.77
2022-11-16T03:29:31.107Z,9.13
2022-11-16T03:32:30.279Z,8.95
2022-11-16T03:35:05.262Z,7.60
2022-11-16T03:37:35.948Z,8.30
2022-11-16T03:40:06.531Z,8.90
2022-11-16T03:42:36.472Z,9.15
2022-11-16T03:45:05.671Z,8.82
2022-11-16T03:47:34.490Z,10.73
2022-11-16T03:50:05.136Z,8.38
2022-11-16T03:52:33.779Z,8.77
2022-11-16T03:55:02.033Z,8.60
2022-11-16T03:57:30.453Z,8.25
2022-11-16T04:00:00.721Z,9.23
2022-11-16T04:02:30.893Z,8.23
2022-11-16T04:05:00.010Z,8.23
2022-11-16T04:07:28.282Z,9.10
2022-11-16T04:09:56.621Z,8.32
2022-11-16T04:12:24.959Z,8.73
2022-11-16T04:14:53.320Z,8.77
2022-11-16T04:17:25.290Z,10.38
2022-11-16T04:19:57.971Z,9.65
2022-11-16T04:22:46.251Z,7.90
2022-11-16T04:25:25.822Z,8.98
2022-11-16T04:27:55.719Z,9.98
2022-11-16T04:30:24.940Z,8.93
2022-11-16T04:32:53.518Z,8.65
2022-11-16T04:35:22.635Z,9.38
2022-11-16T04:37:51.595Z,10.38
2022-11-16T04:40:26.779Z,10.18
2022-11-16T04:42:56.691Z,8.90
2022-11-16T04:45:25.869Z,10.75
2022-11-16T04:47:54.814Z,10.05
2022-11-16T04:50:28.057Z,8.45
2022-11-16T04:52:56.412Z,8.57
2022-11-16T04:55:24.592Z,9.75
2022-11-16T04:57:54.242Z,9.43
2022-11-16T05:00:23.020Z,10.00
2022-11-16T05:05:18.292Z,7.55
2022-11-16T05:07:49.016Z,9.27
2022-11-16T05:10:23.583Z,9.15
2022-11-16T05:12:53.575Z,9.48
2022-11-16T05:15:22.373Z,9.25
2022-11-16T05:17:50.712Z,9.27
2022-11-16T05:20:22.648Z,8.13
2022-11-16T05:22:58.943Z,9.60
2022-11-16T05:25:36.494Z,8.40
2022-11-16T05:28:08.713Z,9.48
2022-11-16T05:30:41.414Z,8.18
2022-11-16T05:33:10.840Z,8.82
2022-11-16T05:35:42.273Z,9.45
2022-11-16T05:38:10.603Z,10.02
2022-11-16T05:40:43.479Z,9.48
2022-11-16T05:43:11.916Z,10.25
2022-11-16T05:45:48.339Z,9.48
2022-11-16T05:48:17.232Z,8.85
2022-11-16T05:50:45.668Z,8.75
2022-11-16T05:53:26.685Z,8.38
2022-11-16T05:55:54.970Z,10.32
2022-11-16T05:58:24.806Z,9.40
2022-11-16T06:00:53.111Z,8.68
2022-11-16T06:03:21.637Z,10.25
2022-11-16T06:05:50.009Z,8.73
2022-11-16T06:08:18.467Z,10.45
2022-11-16T06:10:47.267Z,12.38
2022-11-16T06:13:15.958Z,14.35
2022-11-16T06:18:26.395Z,12.30
2022-11-16T06:20:55.284Z,11.98
2022-11-16T06:23:23.997Z,27.48
2022-11-16T06:25:55.321Z,21.75
2022-11-16T06:28:26.439Z,13.48
2022-11-16T06:30:55.903Z,13.43
2022-11-16T06:33:33.208Z,14.13
2022-11-16T06:36:05.135Z,15.07
2022-11-16T06:38:34.061Z,15.70
2022-11-16T06:41:03.651Z,16.33
2022-11-16T06:43:37.574Z,16.55
2022-11-16T06:46:06.628Z,16.50
2022-11-16T06:48:35.065Z,18.52
2022-11-16T06:51:07.512Z,20.23
2022-11-16T06:53:54.427Z,21.38
2022-11-16T06:56:23.644Z,30.38
2022-11-16T06:58:56.979Z,29.08
2022-11-16T07:01:27.428Z,26.35
2022-11-16T07:04:01.283Z,25.75
2022-11-16T07:06:31.000Z,28.17
2022-11-16T07:09:00.200Z,27.88
2022-11-16T07:11:31.896Z,28.13
2022-11-16T07:14:00.593Z,24.05
2022-11-16T07:16:30.259Z,18.70
2022-11-16T07:21:32.510Z,24.90
2022-11-16T07:24:03.751Z,19.90
2022-11-16T07:26:37.422Z,17.40
2022-11-16T07:29:16.178Z,16.63
2022-11-16T07:32:03.320Z,18.27
2022-11-16T07:34:51.467Z,14.48
2022-11-16T07:37:19.854Z,13.23
2022-11-16T07:39:48.707Z,13.32
2022-11-16T07:42:17.441Z,13.45
2022-11-16T07:45:06.236Z,12.90
2022-11-16T07:47:39.429Z,13.93
2022-11-16T07:50:11.364Z,13.75
2022-11-16T07:52:39.770Z,12.98
2022-11-16T07:55:11.535Z,11.93
2022-11-16T07:57:40.093Z,10.93
2022-11-16T08:00:10.507Z,11.02
2022-11-16T08:02:57.106Z,10.98
2022-11-16T08:05:26.735Z,10.85
2022-11-16T08:07:55.527Z,10.30
2022-11-16T08:10:26.100Z,9.77
2022-11-16T08:12:55.845Z,10.95
2022-11-16T08:15:26.132Z,13.30
2022-11-16T08:17:54.636Z,12.15
2022-11-16T08:22:23.652Z,10.32
2022-11-16T08:24:52.193Z,9.73
2022-11-16T08:27:20.512Z,7.50
2022-11-16T08:29:53.436Z,6.57
2022-11-16T08:32:22.340Z,6.10
2022-11-16T08:34:50.531Z,6.65
2022-11-16T08:37:18.931Z,5.65
2022-11-16T08:39:48.842Z,6.57
2022-11-16T08:42:17.249Z,5.22
2022-11-16T08:44:48.415Z,4.43
2022-11-16T08:47:19.596Z,5.13
2022-11-16T08:52:39.700Z,4.63
2022-11-16T08:55:08.836Z,5.55
2022-11-16T08:57:38.469Z,5.70
2022-11-16T09:00:11.481Z,6.22
2022-11-16T09:02:39.739Z,6.28
2022-11-16T09:05:08.567Z,6.68
2022-11-16T09:07:36.895Z,6.35
2022-11-16T09:10:05.741Z,6.78
2022-11-16T09:12:35.159Z,6.95
2022-11-16T09:15:04.145Z,6.90
2022-11-16T09:17:32.490Z,5.57
2022-11-16T09:20:00.769Z,7.35
2022-11-16T09:22:28.951Z,7.38
2022-11-16T09:24:57.265Z,7.72
2022-11-16T09:27:25.482Z,6.97
2022-11-16T09:29:53.730Z,6.60
2022-11-16T09:32:21.909Z,6.28
2022-11-16T09:34:50.141Z,6.00
2022-11-16T09:37:18.466Z,7.25
2022-11-16T09:39:46.700Z,6.95
2022-11-16T09:42:46.812Z,7.45
2022-11-16T09:45:27.770Z,8.48
2022-11-16T09:47:59.344Z,8.10
2022-11-16T09:53:38.046Z,7.03
2022-11-16T09:59:00.730Z,8.55
2022-11-16T10:01:43.333Z,9.48
2022-11-16T10:04:58.000Z,10.50
2022-11-16T10:07:44.506Z,8.98
2022-11-16T10:10:17.666Z,6.18
2022-11-16T10:13:12.307Z,6.10
2022-11-16T10:15:49.890Z,7.80
2022-11-16T10:18:29.980Z,7.53
2022-11-16T10:21:09.550Z,8.27
2022-11-16T10:23:59.458Z,9.10
2022-11-16T10:26:44.595Z,8.07
2022-11-16T10:29:37.353Z,7.97
2022-11-16T10:32:18.995Z,7.72
2022-11-16T10:35:13.523Z,7.80
2022-11-16T10:37:47.224Z,8.45
2022-11-16T10:40:20.719Z,7.75
2022-11-16T10:43:01.541Z,8.20
2022-11-16T10:45:46.374Z,9.05
2022-11-16T10:48:43.942Z,8.93
2022-11-16T10:51:12.226Z,10.02
2022-11-16T10:53:42.886Z,7.05
2022-11-16T10:56:17.474Z,6.70
2022-11-16T10:59:05.679Z,8.38
2022-11-16T11:01:40.990Z,10.25
2022-11-16T11:04:29.398Z,7.70
2022-11-16T11:07:00.493Z,6.57
2022-11-16T11:09:34.976Z,7.20
2022-11-16T11:12:18.369Z,9.25
2022-11-16T11:15:11.910Z,8.55
2022-11-16T11:17:47.924Z,8.25
2022-11-16T11:20:16.417Z,8.88
2022-11-16T11:23:01.300Z,10.23
2022-11-16T11:25:41.036Z,11.65
2022-11-16T11:28:26.233Z,9.68
2022-11-16T11:31:26.842Z,8.85
2022-11-16T11:33:58.948Z,8.73
2022-11-16T11:36:40.839Z,8.38
2022-11-16T11:41:43.317Z,8.93
2022-11-16T11:44:14.610Z,9.30
2022-11-16T11:47:55.504Z,8.27
2022-11-16T11:50:13.621Z,8.05
2022-11-16T11:53:00.227Z,8.10
2022-11-16T11:55:28.814Z,8.30
2022-11-16T11:57:58.879Z,8.63
2022-11-16T12:00:27.332Z,8.27
2022-11-16T12:03:13.663Z,7.93
2022-11-16T12:06:09.064Z,7.60
2022-11-16T12:08:46.586Z,6.70
2022-11-16T12:11:44.818Z,6.50
2022-11-16T12:14:40.087Z,5.28
2022-11-16T12:17:19.818Z,5.97
2022-11-16T12:20:03.758Z,5.80
2022-11-16T12:23:04.607Z,5.28
2022-11-16T12:25:57.499Z,4.88
2022-11-16T12:28:34.977Z,5.00
2022-11-16T12:31:18.475Z,5.63
2022-11-16T12:34:00.654Z,4.30
2022-11-16T12:36:50.726Z,4.43
2022-11-16T12:39:36.083Z,4.53
2022-11-16T12:42:18.863Z,4.40
2022-11-16T12:45:20.645Z,4.68
2022-11-16T12:47:52.039Z,4.03
2022-11-16T12:50:20.130Z,4.05
2022-11-16T12:53:17.144Z,4.07
2022-11-16T12:56:05.130Z,4.10
2022-11-16T12:58:36.129Z,4.15
2022-11-16T13:01:07.120Z,4.35
2022-11-16T13:03:48.127Z,5.70
2022-11-16T13:06:27.290Z,4.20
2022-11-16T13:09:27.893Z,3.25
2022-11-16T13:12:01.922Z,4.07
2022-11-16T13:14:38.189Z,5.80
2022-11-16T13:17:07.959Z,4.05
2022-11-16T13:19:44.839Z,2.92
2022-11-16T13:22:22.078Z,4.43
2022-11-16T13:25:14.982Z,4.07
2022-11-16T13:27:46.134Z,4.53
2022-11-16T13:30:25.410Z,3.58
2022-11-16T13:33:08.851Z,3.92
2022-11-16T13:35:39.096Z,3.80
2022-11-16T13:38:13.913Z,4.10
2022-11-16T13:40:42.338Z,3.60
2022-11-16T13:43:10.478Z,4.15
2022-11-16T13:45:43.373Z,4.43
2022-11-16T13:48:28.903Z,4.30
2022-11-16T13:51:01.093Z,3.30
2022-11-16T13:54:42.735Z,4.78
2022-11-16T13:56:29.275Z,3.72
2022-11-16T13:58:59.011Z,4.43
2022-11-16T14:02:24.875Z,4.18
2022-11-16T14:05:02.725Z,5.25
2022-11-16T14:07:30.863Z,4.30
2022-11-16T14:09:59.403Z,5.10
2022-11-16T14:12:52.070Z,3.92
2022-11-16T14:15:21.813Z,5.05
2022-11-16T14:17:56.005Z,5.53
2022-11-16T14:20:55.881Z,5.20
2022-11-16T14:23:36.193Z,3.55
2022-11-16T14:26:20.890Z,4.40
2022-11-16T14:29:10.903Z,4.85
2022-11-16T14:31:53.277Z,5.13
2022-11-16T14:34:42.719Z,5.70
2022-11-16T14:37:36.382Z,4.68
2022-11-16T14:40:19.198Z,5.63
2022-11-16T14:43:14.789Z,4.00
2022-11-16T14:45:39.801Z,4.37
2022-11-16T14:48:20.750Z,4.53
2022-11-16T14:51:06.355Z,7.75
2022-11-16T14:53:37.210Z,5.25
2022-11-16T14:56:12.694Z,4.82
2022-11-16T14:58:50.844Z,9.13
2022-11-16T15:01:21.329Z,6.53
2022-11-16T15:04:07.562Z,3.65
2022-11-16T15:06:52.676Z,3.90
2022-11-16T15:09:31.689Z,4.45
2022-11-16T15:12:02.521Z,4.32
2022-11-16T15:14:33.185Z,4.97
2022-11-16T15:17:01.907Z,6.70
2022-11-16T15:19:31.627Z,9.52
2022-11-16T15:22:04.555Z,4.47
2022-11-16T15:24:35.525Z,4.47
2022-11-16T15:27:13.005Z,6.03
2022-11-16T15:29:41.592Z,3.50
2022-11-16T15:32:17.115Z,4.22
2022-11-16T15:34:54.685Z,6.38
2022-11-16T15:37:30.537Z,6.15
2022-11-16T15:40:00.057Z,4.15
2022-11-16T15:42:29.560Z,5.13
2022-11-16T15:45:12.889Z,5.43
2022-11-16T15:47:44.677Z,5.47
2022-11-16T15:50:23.691Z,4.82
2022-11-16T15:52:54.957Z,5.30
2022-11-16T15:55:29.333Z,6.07
2022-11-16T15:58:02.363Z,4.80
2022-11-16T16:00:33.367Z,5.30
2022-11-16T16:03:18.582Z,4.67
2022-11-16T16:05:47.255Z,4.82
2022-11-16T16:08:36.721Z,4.82
2022-11-16T16:11:19.378Z,6.00
2022-11-16T16:14:04.428Z,6.28
2022-11-16T16:16:39.752Z,4.50
2022-11-16T16:19:44.673Z,5.13
2022-11-16T16:22:37.137Z,4.10
2022-11-16T16:25:07.413Z,6.38
2022-11-16T16:27:40.721Z,4.72
2022-11-16T16:30:13.781Z,5.03
2022-11-16T16:32:42.296Z,5.68
2022-11-16T16:35:18.526Z,5.35
2022-11-16T16:37:49.899Z,5.85
2022-11-16T16:40:19.372Z,6.93
2022-11-16T16:42:47.477Z,5.95
2022-11-16T16:45:26.719Z,4.15
2022-11-16T16:47:54.957Z,6.40
2022-11-16T16:50:23.275Z,5.65
2022-11-16T16:52:51.566Z,6.30
2022-11-16T16:55:19.900Z,5.88
2022-11-16T16:57:48.475Z,5.43
2022-11-16T17:00:17.516Z,5.85
2022-11-16T17:02:45.953Z,6.60
2022-11-16T17:05:14.219Z,6.35
2022-11-16T17:07:42.893Z,5.38
2022-11-16T17:10:11.216Z,6.05
2022-11-16T17:12:39.520Z,5.45
2022-11-16T17:15:08.409Z,5.45
2022-11-16T17:18:42.585Z,5.93
2022-11-16T17:21:11.786Z,7.20
2022-11-16T17:23:40.167Z,5.95
2022-11-16T17:26:09.222Z,5.70
2022-11-16T17:28:37.705Z,5.80
2022-11-16T17:31:08.607Z,5.28
2022-11-16T17:33:38.086Z,6.82
2022-11-16T17:36:07.835Z,6.30
2022-11-16T17:38:36.392Z,7.97
2022-11-16T17:41:10.919Z,8.27
2022-11-16T17:43:40.043Z,17.92
2022-11-16T17:46:09.756Z,9.80
2022-11-16T17:48:39.396Z,10.32
2022-11-16T17:51:07.876Z,7.60
2022-11-16T17:53:37.056Z,7.53
2022-11-16T17:56:06.180Z,35.58
2022-11-16T17:58:34.932Z,7.68
2022-11-16T18:01:03.085Z,8.20
2022-11-16T18:03:31.577Z,8.55
2022-11-16T18:06:11.740Z,8.30
2022-11-16T18:08:41.019Z,5.82
2022-11-16T18:11:12.203Z,6.00
2022-11-16T18:13:41.141Z,6.50
2022-11-16T18:16:15.634Z,6.25
2022-11-16T18:18:45.422Z,6.78
2022-11-16T18:21:20.331Z,8.30
2022-11-16T18:23:49.387Z,6.47
2022-11-16T18:26:19.990Z,7.93
2022-11-16T18:28:49.439Z,8.45
2022-11-16T18:31:20.959Z,10.05
2022-11-16T18:33:49.483Z,9.05
2022-11-16T18:36:19.297Z,9.27
2022-11-16T18:38:47.996Z,11.35
2022-11-16T18:41:23.074Z,11.20
2022-11-16T18:43:51.251Z,7.70
2022-11-16T18:46:20.762Z,11.95
2022-11-16T18:48:49.417Z,8.43
2022-11-16T18:51:18.827Z,8.95
2022-11-16T18:53:47.288Z,9.73
2022-11-16T18:56:16.210Z,8.23
2022-11-16T18:58:52.904Z,7.50
2022-11-16T19:01:25.037Z,9.50
2022-11-16T19:03:54.867Z,10.25
2022-11-16T19:06:24.239Z,9.65
2022-11-16T19:08:57.124Z,19.77
2022-11-16T19:11:26.416Z,19.95
2022-11-16T19:13:57.177Z,11.13
2022-11-16T19:16:26.357Z,11.82
2022-11-16T19:18:54.921Z,10.75
2022-11-16T19:21:23.775Z,9.70
2022-11-16T19:23:56.684Z,10.40
2022-11-16T19:26:27.465Z,11.85
2022-11-16T19:28:56.320Z,10.77
2022-11-16T19:31:29.679Z,9.93
2022-11-16T19:34:03.157Z,9.75
2022-11-16T19:36:32.705Z,11.05
2022-11-16T19:39:01.518Z,8.35
2022-11-16T19:41:30.100Z,8.98
2022-11-16T19:44:02.599Z,8.40
2022-11-16T19:46:33.111Z,9.18
2022-11-16T19:49:01.463Z,7.50
2022-11-16T19:51:32.778Z,8.30
2022-11-16T19:54:02.591Z,10.63
2022-11-16T19:56:31.320Z,9.25
2022-11-16T19:58:59.627Z,9.63
2022-11-16T20:01:29.422Z,9.20
2022-11-16T20:04:00.260Z,10.10
2022-11-16T20:06:29.520Z,10.95
2022-11-16T20:09:00.642Z,14.32
2022-11-16T20:11:31.067Z,21.27
2022-11-16T20:13:59.799Z,23.25
2022-11-16T20:16:35.549Z,27.10
2022-11-16T20:19:08.032Z,30.77
2022-11-16T20:21:39.037Z,31.65
2022-11-16T20:24:12.277Z,33.13
2022-11-16T20:26:45.987Z,48.38
2022-11-16T20:29:16.815Z,57.67
2022-11-16T20:31:45.846Z,37.40
2022-11-16T20:34:16.161Z,11.23
2022-11-16T20:36:46.959Z,18.17
2022-11-16T20:39:17.174Z,13.30
2022-11-16T20:41:45.904Z,14.88
2022-11-16T20:44:16.887Z,12.27
2022-11-16T20:46:45.731Z,10.53
2022-11-16T20:49:14.368Z,9.48
2022-11-16T20:51:42.762Z,7.50
2022-11-16T20:54:10.961Z,7.80
2022-11-16T20:56:39.226Z,7.50
2022-11-16T20:59:07.417Z,14.30
2022-11-16T21:01:35.638Z,10.95
2022-11-16T21:04:05.990Z,9.57
2022-11-16T21:06:34.804Z,10.52
2022-11-16T21:09:02.948Z,10.45
2022-11-16T21:11:33.263Z,15.93
2022-11-16T21:14:01.597Z,12.32
2022-11-16T21:16:48.335Z,9.40
2022-11-16T21:19:17.461Z,6.32
2022-11-16T21:21:45.577Z,5.32
2022-11-16T21:24:13.854Z,9.32
2022-11-16T21:26:42.179Z,6.55
2022-11-16T21:29:10.318Z,6.07
2022-11-16T21:31:38.714Z,6.57
2022-11-16T21:34:07.061Z,6.20
2022-11-16T21:36:35.250Z,6.75
2022-11-16T21:39:03.658Z,6.18
2022-11-16T21:41:31.970Z,7.07
2022-11-16T21:44:00.269Z,6.38
2022-11-16T21:46:28.666Z,6.85
2022-11-16T21:48:57.127Z,7.80
2022-11-16T21:51:27.528Z,8.48
2022-11-16T21:53:55.970Z,10.32
2022-11-16T21:56:26.316Z,8.70
2022-11-16T21:58:55.163Z,11.05
2022-11-16T22:01:24.328Z,8.82
2022-11-16T22:03:52.723Z,7.90
2022-11-16T22:06:21.106Z,16.45
2022-11-16T22:08:49.712Z,18.15
2022-11-16T22:11:18.665Z,8.40
2022-11-16T22:13:46.998Z,6.85
2022-11-16T22:16:16.438Z,7.28
2022-11-16T22:18:45.073Z,5.60
2022-11-16T22:21:13.517Z,7.38
2022-11-16T22:23:41.982Z,5.78
2022-11-16T22:26:12.850Z,6.95
2022-11-16T22:28:41.306Z,8.90
2022-11-16T22:31:18.195Z,6.93
2022-11-16T22:33:46.347Z,12.43
2022-11-16T22:36:14.541Z,10.95
2022-11-16T22:38:42.707Z,10.43
2022-11-16T22:41:10.996Z,12.80
2022-11-16T22:43:39.524Z,10.55
2022-11-16T22:46:07.873Z,9.10
2022-11-16T22:48:40.652Z,10.13
2022-11-16T22:51:15.773Z,9.23
2022-11-16T22:53:44.136Z,11.82
2022-11-16T22:56:13.063Z,10.45
2022-11-16T22:58:41.298Z,12.23
2022-11-16T23:01:10.160Z,10.50
2022-11-16T23:03:38.896Z,10.07
2022-11-16T23:06:07.872Z,9.00
2022-11-16T23:08:37.079Z,9.10
2022-11-16T23:11:06.675Z,8.38
2022-11-16T23:13:35.117Z,7.10
2022-11-16T23:16:11.992Z,6.50
2022-11-16T23:18:40.421Z,7.45
2022-11-16T23:21:09.285Z,7.43
2022-11-16T23:23:37.628Z,6.65
2022-11-16T23:26:12.093Z,6.40
2022-11-16T23:28:40.426Z,6.72
2022-11-16T23:31:08.572Z,7.60
2022-11-16T23:33:36.883Z,7.90
2022-11-16T23:36:05.601Z,8.77
2022-11-16T23:38:33.594Z,7.68
2022-11-16T23:41:01.835Z,9.25
2022-11-16T23:43:30.161Z,10.13
2022-11-16T23:45:58.310Z,10.32
2022-11-16T23:48:26.488Z,11.43
2022-11-16T23:50:54.626Z,9.10
2022-11-16T23:53:22.790Z,12.40
2022-11-16T23:55:50.835Z,13.52
2022-11-16T23:58:19.101Z,9.68
